Time;durP1;ratioP1;P1;durP2;ratioP2;P2;SDS_P1;SDS_P2;PMS_P1;PMS_P2;Temp;Humidity;BMP_temperature;BMP_pressure;BME280_temperature;BME280_humidity;BME280_pressure;Samples;Min_cycle;Max_cycle;Signal;HPM_P1;HPM_P2
2021/11/21 00:02:19;;;;;;;3.00;2.45;;;18.40;50.20;;;;;;5088011;28;20051;-56
2021/11/21 00:04:46;;;;;;;2.53;2.33;;;18.40;50.80;;;;;;5094852;28;20046;-54
2021/11/21 00:07:13;;;;;;;3.28;2.58;;;18.40;50.20;;;;;;5101625;28;20958;-49
2021/11/21 00:09:40;;;;;;;1.77;1.67;;;18.40;50.20;;;;;;5094831;28;20089;-50
2021/11/21 00:12:09;;;;;;;3.30;2.75;;;18.40;50.80;;;;;;5089915;28;20050;-52
2021/11/21 00:14:36;;;;;;;3.00;2.08;;;18.30;50.10;;;;;;5098597;28;20048;-53
2021/11/21 00:17:07;;;;;;;2.97;2.30;;;18.30;50.10;;;;;;5098887;28;20042;-50
2021/11/21 00:19:35;;;;;;;2.35;2.25;;;18.30;50.10;;;;;;5105750;28;20105;-56
2021/11/21 00:22:03;;;;;;;1.65;1.52;;;18.30;50.10;;;;;;5089177;28;20055;-56
2021/11/21 00:24:30;;;;;;;2.15;2.05;;;18.30;50.10;;;;;;5105683;28;20066;-55
2021/11/21 00:26:57;;;;;;;2.67;2.08;;;18.30;50.10;;;;;;5079753;28;20055;-53
2021/11/21 00:29:25;;;;;;;2.35;2.15;;;18.30;50.00;;;;;;5068255;28;20054;-54
2021/11/21 00:31:52;;;;;;;2.47;2.28;;;18.30;50.00;;;;;;5088039;28;20040;-56
2021/11/21 00:34:19;;;;;;;2.17;2.08;;;18.40;50.00;;;;;;5104003;28;20082;-54
2021/11/21 00:36:46;;;;;;;2.33;2.08;;;18.30;50.00;;;;;;5091736;28;20104;-55
2021/11/21 00:39:13;;;;;;;1.75;1.65;;;18.40;50.00;;;;;;5093841;28;20047;-54
2021/11/21 00:41:41;;;;;;;1.98;1.88;;;18.30;50.00;;;;;;5088754;28;20036;-54
2021/11/21 00:44:09;;;;;;;2.28;2.08;;;18.40;50.00;;;;;;5091754;28;20130;-52
2021/11/21 00:46:38;;;;;;;1.63;1.45;;;18.30;49.90;;;;;;5091590;28;20450;-54
2021/11/21 00:49:08;;;;;;;2.13;1.60;;;18.40;50.60;;;;;;5069293;28;20041;-55
2021/11/21 00:51:35;;;;;;;1.95;1.85;;;18.30;49.90;;;;;;5087687;28;20043;-50
2021/11/21 00:54:09;;;;;;;1.30;1.20;;;18.30;49.90;;;;;;5083536;28;20044;-55
2021/11/21 00:56:36;;;;;;;2.17;1.40;;;18.30;49.90;;;;;;5094572;28;20132;-54
2021/11/21 00:59:03;;;;;;;1.63;0.98;;;18.30;49.90;;;;;;5102036;28;20031;-51
2021/11/21 01:01:30;;;;;;;1.10;1.08;;;18.30;49.90;;;;;;5101430;28;20036;-54
2021/11/21 01:03:59;;;;;;;0.82;0.82;;;18.30;49.90;;;;;;5087537;28;20032;-52
2021/11/21 01:06:26;;;;;;;1.73;1.20;;;18.30;49.90;;;;;;5103111;28;20043;-52
2021/11/21 01:08:53;;;;;;;1.58;1.00;;;18.30;49.90;;;;;;5091141;28;20047;-52
2021/11/21 01:11:20;;;;;;;1.58;1.48;;;18.30;49.90;;;;;;5087841;28;20054;-50
2021/11/21 01:13:47;;;;;;;1.08;1.08;;;18.30;49.90;;;;;;5085235;28;20150;-54
2021/11/21 01:16:14;;;;;;;0.95;0.95;;;18.30;49.80;;;;;;5103060;28;20070;-49
2021/11/21 01:18:41;;;;;;;1.27;1.17;;;18.30;49.80;;;;;;5093127;28;20049;-51
2021/11/21 01:21:09;;;;;;;0.80;0.70;;;18.30;49.80;;;;;;5092414;28;20040;-51
2021/11/21 01:23:37;;;;;;;1.13;0.43;;;18.30;49.80;;;;;;5093208;28;20035;-52
2021/11/21 01:26:04;;;;;;;0.93;0.93;;;18.30;49.80;;;;;;5096631;28;20567;-53
2021/11/21 01:28:31;;;;;;;0.90;0.68;;;18.30;49.80;;;;;;5093961;28;20035;-52
2021/11/21 01:30:59;;;;;;;2.30;1.08;;;18.30;49.80;;;;;;5086906;28;20050;-54
2021/11/21 01:33:26;;;;;;;1.50;1.00;;;18.30;49.80;;;;;;5086010;28;20050;-54
2021/11/21 01:35:53;;;;;;;1.08;1.00;;;18.30;49.80;;;;;;5091063;28;20123;-54
2021/11/21 01:38:22;;;;;;;0.80;0.77;;;18.30;49.70;;;;;;5093827;28;20036;-54
2021/11/21 01:40:49;;;;;;;0.98;0.75;;;18.30;49.80;;;;;;5096744;28;20900;-54
2021/11/21 01:43:17;;;;;;;0.70;0.63;;;18.20;49.70;;;;;;5068945;28;25707;-50
2021/11/21 01:45:44;;;;;;;1.40;1.30;;;18.30;49.70;;;;;;5088303;28;20125;-55
2021/11/21 01:48:11;;;;;;;0.65;0.55;;;18.30;49.80;;;;;;5099424;28;20043;-55
2021/11/21 01:50:41;;;;;;;1.30;0.90;;;18.30;49.70;;;;;;5092125;28;20047;-56
2021/11/21 01:53:10;;;;;;;0.57;0.57;;;18.30;49.70;;;;;;5087433;28;20415;-51
2021/11/21 01:55:41;;;;;;;0.85;0.80;;;18.30;49.70;;;;;;5085972;28;20047;-53
2021/11/21 01:58:08;;;;;;;0.60;0.60;;;18.30;49.70;;;;;;5082757;28;20386;-55
2021/11/21 02:00:38;;;;;;;1.48;1.38;;;18.30;49.70;;;;;;5090012;28;20044;-54
2021/11/21 02:03:05;;;;;;;0.60;0.60;;;18.30;49.70;;;;;;5086860;28;20627;-54
2021/11/21 02:05:32;;;;;;;1.45;1.23;;;18.20;49.70;;;;;;5092839;28;20047;-52
2021/11/21 02:07:59;;;;;;;0.80;0.80;;;18.20;49.60;;;;;;5094283;28;20040;-51
2021/11/21 02:10:26;;;;;;;1.23;1.15;;;18.20;49.70;;;;;;5086414;28;20511;-54
2021/11/21 02:12:55;;;;;;;1.52;1.42;;;18.30;49.70;;;;;;5086646;28;20037;-55
2021/11/21 02:15:25;;;;;;;0.88;0.88;;;18.30;49.70;;;;;;5100265;28;20042;-53
2021/11/21 02:17:53;;;;;;;1.38;1.17;;;18.30;49.70;;;;;;5084364;28;20046;-53
2021/11/21 02:20:24;;;;;;;1.85;1.73;;;18.30;49.70;;;;;;5090586;28;20048;-53
2021/11/21 02:22:51;;;;;;;1.70;1.33;;;18.30;49.70;;;;;;5084282;28;20040;-54
2021/11/21 02:25:18;;;;;;;0.82;0.77;;;18.30;49.70;;;;;;5081016;28;20040;-52
2021/11/21 02:27:45;;;;;;;0.95;0.90;;;18.20;49.60;;;;;;5072282;28;20799;-54
2021/11/21 02:30:13;;;;;;;1.60;1.40;;;18.30;49.70;;;;;;5071796;28;20040;-53
2021/11/21 02:32:47;;;;;;;1.52;1.40;;;18.20;49.70;;;;;;5054946;28;20040;-50
2021/11/21 02:35:14;;;;;;;1.40;1.38;;;18.30;49.70;;;;;;5071568;28;20047;-55
2021/11/21 02:37:43;;;;;;;2.05;1.52;;;18.20;49.70;;;;;;5069357;28;20409;-54
2021/11/21 02:40:11;;;;;;;1.30;1.20;;;18.20;49.70;;;;;;5067434;28;20127;-51
2021/11/21 02:42:39;;;;;;;1.77;1.67;;;18.30;49.70;;;;;;5067352;28;20128;-56
2021/11/21 02:45:09;;;;;;;1.25;1.15;;;18.20;49.60;;;;;;5073614;28;20124;-54
2021/11/21 02:47:36;;;;;;;1.90;1.45;;;18.20;49.60;;;;;;5076109;28;20044;-56
2021/11/21 02:50:08;;;;;;;1.35;1.02;;;18.20;49.70;;;;;;5079029;28;20032;-56
2021/11/21 02:52:35;;;;;;;1.30;1.15;;;18.30;49.70;;;;;;5061468;28;20129;-52
2021/11/21 02:55:04;;;;;;;1.40;1.40;;;18.20;49.60;;;;;;5065245;28;20040;-54
2021/11/21 02:57:31;;;;;;;1.60;1.50;;;18.20;49.60;;;;;;5067872;28;20070;-55
2021/11/21 02:59:58;;;;;;;1.67;1.52;;;18.20;49.60;;;;;;5073936;28;20064;-54
2021/11/21 03:02:25;;;;;;;1.33;1.10;;;18.20;49.60;;;;;;5075129;28;20491;-50
2021/11/21 03:04:53;;;;;;;1.90;1.73;;;18.20;49.60;;;;;;5070083;28;20036;-52
2021/11/21 03:07:20;;;;;;;1.33;1.23;;;18.20;49.70;;;;;;5077762;28;20041;-52
2021/11/21 03:09:48;;;;;;;1.40;1.08;;;18.20;49.60;;;;;;5072320;28;20052;-53
2021/11/21 03:12:19;;;;;;;1.50;1.40;;;18.20;49.60;;;;;;5076668;28;20091;-51
2021/11/21 03:14:46;;;;;;;1.83;1.58;;;18.20;49.60;;;;;;5057718;28;20040;-52
2021/11/21 03:17:13;;;;;;;2.00;1.08;;;18.20;49.60;;;;;;5077772;28;20048;-54
2021/11/21 03:19:40;;;;;;;1.92;1.83;;;18.20;49.60;;;;;;5068959;28;20039;-54
2021/11/21 03:22:08;;;;;;;1.23;1.23;;;18.20;49.60;;;;;;5063791;28;20036;-53
2021/11/21 03:24:35;;;;;;;1.30;1.20;;;18.20;49.60;;;;;;5069872;28;20393;-54
2021/11/21 03:27:02;;;;;;;3.00;1.08;;;18.20;49.60;;;;;;5071325;28;20693;-55
2021/11/21 03:29:32;;;;;;;1.60;1.50;;;18.20;49.60;;;;;;5064413;28;20074;-53
2021/11/21 03:31:59;;;;;;;1.67;1.40;;;18.20;49.60;;;;;;5067350;28;20377;-57
2021/11/21 03:34:27;;;;;;;1.67;1.58;;;18.20;49.60;;;;;;5068026;28;20045;-52
2021/11/21 03:36:54;;;;;;;2.30;1.20;;;18.20;49.60;;;;;;5070151;28;20037;-51
2021/11/21 03:39:21;;;;;;;1.38;1.20;;;18.20;49.50;;;;;;5083352;28;20046;-54
2021/11/21 03:41:48;;;;;;;1.50;1.40;;;18.30;49.60;;;;;;5069186;28;20044;-55
2021/11/21 03:44:15;;;;;;;2.45;1.45;;;18.20;49.50;;;;;;5072041;28;20506;-53
2021/11/21 03:46:43;;;;;;;2.63;1.42;;;18.20;49.50;;;;;;5068704;28;20043;-54
2021/11/21 03:49:10;;;;;;;2.67;1.42;;;18.20;49.50;;;;;;5061482;28;20127;-55
2021/11/21 03:51:38;;;;;;;2.25;1.42;;;18.20;49.50;;;;;;5074167;28;20040;-55
2021/11/21 03:54:05;;;;;;;2.17;1.55;;;18.20;49.50;;;;;;5066898;28;20045;-54
2021/11/21 03:56:33;;;;;;;2.10;2.00;;;18.20;49.50;;;;;;5073640;28;20048;-52
2021/11/21 03:59:01;;;;;;;1.92;1.75;;;18.20;49.50;;;;;;5077064;28;20325;-55
2021/11/21 04:01:29;;;;;;;2.80;2.17;;;18.20;49.50;;;;;;5068907;28;20040;-53
2021/11/21 04:03:57;;;;;;;2.08;1.75;;;18.20;49.50;;;;;;5072285;28;20040;-55
2021/11/21 04:06:24;;;;;;;1.70;1.58;;;18.20;49.50;;;;;;5079633;28;20040;-54
2021/11/21 04:08:51;;;;;;;4.57;1.77;;;18.20;49.50;;;;;;5072748;28;20041;-54
2021/11/21 04:11:18;;;;;;;2.33;2.13;;;18.20;49.50;;;;;;5066756;28;20122;-54
2021/11/21 04:13:45;;;;;;;2.85;2.60;;;18.20;49.50;;;;;;5066500;28;20043;-55
2021/11/21 04:16:12;;;;;;;3.10;2.60;;;18.20;49.50;;;;;;5065556;28;20049;-55
2021/11/21 04:18:39;;;;;;;2.55;2.13;;;18.20;49.50;;;;;;5064371;28;20424;-53
2021/11/21 04:21:08;;;;;;;3.78;2.13;;;18.20;49.50;;;;;;5078756;28;20037;-52
2021/11/21 04:23:35;;;;;;;2.10;1.52;;;18.20;49.50;;;;;;5071539;28;20051;-54
2021/11/21 04:26:02;;;;;;;1.75;1.65;;;18.20;49.50;;;;;;5068432;28;20580;-54
2021/11/21 04:28:29;;;;;;;1.80;1.65;;;18.20;49.50;;;;;;5066657;28;20524;-53
2021/11/21 04:30:56;;;;;;;3.67;2.03;;;18.20;50.10;;;;;;5081711;28;20047;-53
2021/11/21 04:33:24;;;;;;;3.55;1.95;;;18.20;49.50;;;;;;5071627;28;20040;-55
2021/11/21 04:35:52;;;;;;;1.63;1.52;;;18.20;49.50;;;;;;5072906;28;20059;-50
2021/11/21 04:38:22;;;;;;;2.65;2.08;;;18.20;49.50;;;;;;5072181;28;20078;-54
2021/11/21 04:40:51;;;;;;;2.28;1.55;;;18.20;49.50;;;;;;5072787;28;20033;-50
2021/11/21 04:43:18;;;;;;;3.08;1.80;;;18.20;49.50;;;;;;5062974;28;20525;-54
2021/11/21 04:45:45;;;;;;;1.63;1.50;;;18.20;49.50;;;;;;5074263;28;20072;-56
2021/11/21 04:48:12;;;;;;;2.13;1.50;;;18.20;49.50;;;;;;5081792;28;20040;-55
2021/11/21 04:50:39;;;;;;;2.70;2.50;;;18.20;49.50;;;;;;5075133;28;20040;-54
2021/11/21 04:53:07;;;;;;;2.78;2.58;;;18.20;49.50;;;;;;5077939;28;20044;-54
2021/11/21 04:55:35;;;;;;;1.80;1.70;;;18.20;49.50;;;;;;5072207;28;20055;-54
2021/11/21 04:58:03;;;;;;;2.42;2.22;;;18.20;49.50;;;;;;5084350;28;20055;-52
2021/11/21 05:00:30;;;;;;;3.17;2.15;;;18.20;49.50;;;;;;5078031;28;20055;-53
2021/11/21 05:02:57;;;;;;;3.10;2.33;;;18.20;49.50;;;;;;5079609;28;20052;-51
2021/11/21 05:05:25;;;;;;;2.80;2.03;;;18.20;49.50;;;;;;5067781;28;20052;-49
2021/11/21 05:07:52;;;;;;;3.17;2.67;;;18.10;49.40;;;;;;5071112;28;20040;-54
2021/11/21 05:10:21;;;;;;;4.10;2.95;;;18.10;49.50;;;;;;5052954;28;20041;-53
2021/11/21 05:12:50;;;;;;;2.65;1.88;;;18.10;49.40;;;;;;5086714;28;20040;-55
2021/11/21 05:15:19;;;;;;;1.75;1.48;;;18.20;49.50;;;;;;5073653;28;20048;-55
2021/11/21 05:17:48;;;;;;;2.22;2.05;;;18.10;49.50;;;;;;5075941;28;20457;-54
2021/11/21 05:20:16;;;;;;;2.25;2.05;;;18.10;49.50;;;;;;5057467;28;20652;-55
2021/11/21 05:22:43;;;;;;;2.42;1.95;;;18.10;49.50;;;;;;5081525;28;20040;-55
2021/11/21 05:25:10;;;;;;;3.53;2.42;;;18.10;49.50;;;;;;5071357;28;20409;-53
2021/11/21 05:27:37;;;;;;;2.42;2.22;;;18.10;49.50;;;;;;5079244;28;20040;-55
2021/11/21 05:30:07;;;;;;;1.70;1.55;;;18.10;49.50;;;;;;5082049;28;20547;-53
2021/11/21 05:32:33;;;;;;;2.00;1.83;;;18.10;49.50;;;;;;5076994;28;20036;-51
2021/11/21 05:35:00;;;;;;;2.92;2.72;;;18.10;49.50;;;;;;5072950;28;20048;-52
2021/11/21 05:37:28;;;;;;;3.45;2.35;;;18.10;49.50;;;;;;5080593;28;20497;-54
2021/11/21 05:39:55;;;;;;;3.03;2.08;;;18.10;49.50;;;;;;5084783;28;20048;-54
2021/11/21 05:42:22;;;;;;;2.70;2.50;;;18.10;49.50;;;;;;5070770;28;20047;-54
2021/11/21 05:44:49;;;;;;;2.65;2.28;;;18.10;49.50;;;;;;5076962;28;20139;-55
2021/11/21 05:47:17;;;;;;;2.88;2.50;;;18.10;49.50;;;;;;5062528;28;20041;-54
2021/11/21 05:49:44;;;;;;;1.73;1.30;;;18.10;49.50;;;;;;5065302;28;20044;-55
2021/11/21 05:52:11;;;;;;;3.22;2.28;;;18.10;49.50;;;;;;5062823;28;20036;-53
2021/11/21 05:54:38;;;;;;;2.47;2.13;;;18.10;49.50;;;;;;5087957;28;20059;-53
2021/11/21 05:57:06;;;;;;;2.38;2.17;;;18.00;49.50;;;;;;5071312;28;20424;-55
2021/11/21 05:59:35;;;;;;;1.25;1.15;;;18.10;49.50;;;;;;5072621;28;20051;-53
2021/11/21 06:02:02;;;;;;;5.32;2.33;;;18.10;49.50;;;;;;5069394;28;20480;-53
2021/11/21 06:04:31;;;;;;;2.60;2.28;;;18.10;49.50;;;;;;5066405;28;20045;-54
2021/11/21 06:06:58;;;;;;;3.08;2.35;;;18.10;49.50;;;;;;5072129;28;20040;-55
2021/11/21 06:09:25;;;;;;;2.00;1.75;;;18.10;49.50;;;;;;5076140;28;20048;-54
2021/11/21 06:11:54;;;;;;;1.73;1.63;;;18.10;49.60;;;;;;5078661;28;20036;-49
2021/11/21 06:14:21;;;;;;;4.45;2.08;;;18.10;49.50;;;;;;5075750;28;20499;-48
2021/11/21 06:16:49;;;;;;;1.65;1.40;;;18.00;49.50;;;;;;5069283;28;20036;-48
2021/11/21 06:19:16;;;;;;;1.58;1.45;;;18.10;49.50;;;;;;5070194;28;20070;-50
2021/11/21 06:21:44;;;;;;;3.90;1.88;;;18.10;49.50;;;;;;5087593;28;20043;-49
2021/11/21 06:24:11;;;;;;;2.78;2.15;;;18.10;49.50;;;;;;5075001;28;20152;-51
2021/11/21 06:26:38;;;;;;;1.65;1.25;;;18.10;49.60;;;;;;5075925;28;20052;-55
2021/11/21 06:29:05;;;;;;;2.20;1.67;;;18.10;49.50;;;;;;5064563;28;20116;-55
2021/11/21 06:31:32;;;;;;;3.13;1.52;;;18.00;49.50;;;;;;5064839;28;20037;-55
2021/11/21 06:33:59;;;;;;;2.75;1.30;;;18.10;49.50;;;;;;5071280;28;20037;-53
2021/11/21 06:36:26;;;;;;;1.60;1.50;;;18.00;49.50;;;;;;5079043;28;20033;-53
2021/11/21 06:38:55;;;;;;;5.32;1.83;;;18.10;49.60;;;;;;5079095;28;20123;-54
2021/11/21 06:41:22;;;;;;;2.15;1.10;;;18.10;49.50;;;;;;5071105;28;20118;-55
2021/11/21 06:43:49;;;;;;;2.10;1.83;;;18.10;49.60;;;;;;5072156;28;20095;-54
2021/11/21 06:46:16;;;;;;;2.30;1.40;;;18.10;49.60;;;;;;5078106;28;20051;-54
2021/11/21 06:48:43;;;;;;;1.48;1.30;;;18.10;49.50;;;;;;5074838;28;20048;-53
2021/11/21 06:51:12;;;;;;;2.63;2.40;;;18.10;49.60;;;;;;5072965;28;20857;-53
2021/11/21 06:53:39;;;;;;;3.53;1.42;;;18.10;49.50;;;;;;5072613;28;20036;-53
2021/11/21 06:56:08;;;;;;;1.60;1.50;;;18.10;49.50;;;;;;5078423;28;20500;-52
2021/11/21 06:58:35;;;;;;;1.23;1.13;;;18.10;49.60;;;;;;5081748;28;20066;-52
2021/11/21 07:01:02;;;;;;;2.38;1.58;;;18.10;49.60;;;;;;5068588;28;20255;-54
2021/11/21 07:03:29;;;;;;;3.80;2.13;;;18.00;49.50;;;;;;5084680;28;20124;-56
2021/11/21 07:05:56;;;;;;;2.83;1.67;;;18.00;49.50;;;;;;5071869;28;20036;-56
2021/11/21 07:08:23;;;;;;;1.35;0.82;;;18.00;49.50;;;;;;5073771;28;20054;-55
2021/11/21 07:10:50;;;;;;;2.30;2.10;;;18.10;49.60;;;;;;5069296;28;20036;-50
2021/11/21 07:13:20;;;;;;;1.70;1.48;;;18.10;49.60;;;;;;5062537;28;20045;-53
2021/11/21 07:15:48;;;;;;;2.92;1.85;;;18.00;49.50;;;;;;5072222;28;20101;-55
2021/11/21 07:18:15;;;;;;;2.38;1.42;;;18.00;49.50;;;;;;5076734;28;20037;-55
2021/11/21 07:20:42;;;;;;;1.00;0.95;;;18.10;49.60;;;;;;5077289;28;20048;-57
2021/11/21 07:23:10;;;;;;;1.98;0.70;;;18.10;49.60;;;;;;5077449;28;20032;-54
2021/11/21 07:25:38;;;;;;;1.83;1.02;;;18.10;49.60;;;;;;5061968;28;20052;-55
2021/11/21 07:28:05;;;;;;;3.20;1.17;;;18.10;49.60;;;;;;5079562;28;20055;-54
2021/11/21 07:30:33;;;;;;;2.40;1.58;;;18.10;49.60;;;;;;5084418;28;20566;-54
2021/11/21 07:33:00;;;;;;;1.85;1.35;;;18.10;49.60;;;;;;5071569;28;20033;-51
2021/11/21 07:35:27;;;;;;;1.58;1.48;;;18.10;49.60;;;;;;5069085;28;20045;-55
2021/11/21 07:37:54;;;;;;;1.52;1.17;;;18.10;49.60;;;;;;5067146;28;20040;-52
2021/11/21 07:40:21;;;;;;;2.08;0.65;;;18.10;49.60;;;;;;5066470;28;20051;-51
2021/11/21 07:42:48;;;;;;;1.50;0.98;;;18.10;49.60;;;;;;5072033;28;20033;-50
2021/11/21 07:45:15;;;;;;;1.45;1.30;;;18.10;49.60;;;;;;5081600;28;20076;-53
2021/11/21 07:47:46;;;;;;;2.17;1.10;;;18.10;49.60;;;;;;5070456;28;20044;-51
2021/11/21 07:50:15;;;;;;;1.08;0.95;;;18.00;49.50;;;;;;5071560;28;20060;-54
2021/11/21 07:52:42;;;;;;;2.20;1.13;;;18.10;49.60;;;;;;5070174;28;20049;-52
2021/11/21 07:55:10;;;;;;;1.23;1.13;;;18.10;49.60;;;;;;5079615;28;20029;-56
2021/11/21 07:57:38;;;;;;;1.30;1.20;;;18.10;49.60;;;;;;5074104;28;20067;-54
2021/11/21 08:00:07;;;;;;;1.23;0.70;;;18.10;49.60;;;;;;5073847;28;20049;-55
2021/11/21 08:02:34;;;;;;;1.10;1.10;;;18.00;49.50;;;;;;5064843;28;20067;-52
2021/11/21 08:05:03;;;;;;;1.17;1.08;;;18.10;49.60;;;;;;5074872;28;20056;-55
2021/11/21 08:07:30;;;;;;;0.95;0.82;;;18.10;49.60;;;;;;5075044;28;20400;-52
2021/11/21 08:09:57;;;;;;;0.65;0.60;;;18.00;49.50;;;;;;5071898;28;20059;-52
2021/11/21 08:12:24;;;;;;;1.05;0.80;;;18.10;49.60;;;;;;5066669;28;20044;-53
2021/11/21 08:14:52;;;;;;;2.05;1.05;;;18.10;49.60;;;;;;5070676;28;20044;-51
2021/11/21 08:17:19;;;;;;;1.40;0.75;;;18.10;49.60;;;;;;5073302;28;20051;-52
2021/11/21 08:19:46;;;;;;;1.55;0.63;;;18.00;49.60;;;;;;5070633;28;20036;-54
2021/11/21 08:22:15;;;;;;;1.35;1.17;;;18.10;49.60;;;;;;5062922;28;20052;-53
2021/11/21 08:24:42;;;;;;;1.30;1.15;;;18.10;49.60;;;;;;5072612;28;20076;-49
2021/11/21 08:27:10;;;;;;;1.00;0.68;;;18.00;49.50;;;;;;5070562;28;20044;-54
2021/11/21 08:29:37;;;;;;;0.82;0.63;;;18.10;49.60;;;;;;5069022;28;20052;-51
2021/11/21 08:32:05;;;;;;;1.33;1.15;;;18.10;49.60;;;;;;5072349;28;20037;-52
2021/11/21 08:34:33;;;;;;;1.05;0.60;;;18.00;49.50;;;;;;5072249;28;20050;-53
2021/11/21 08:37:01;;;;;;;1.55;0.95;;;18.00;49.50;;;;;;5068034;28;20032;-55
2021/11/21 08:39:29;;;;;;;1.52;0.77;;;18.10;49.60;;;;;;5075954;28;20048;-55
2021/11/21 08:41:57;;;;;;;1.35;1.00;;;18.10;49.60;;;;;;5076885;28;20041;-56
2021/11/21 08:44:25;;;;;;;2.10;0.88;;;18.10;49.60;;;;;;5070244;28;20045;-56
2021/11/21 08:46:52;;;;;;;1.42;1.20;;;18.10;49.60;;;;;;5075870;28;20048;-51
2021/11/21 08:49:19;;;;;;;1.00;0.90;;;18.00;49.50;;;;;;5070274;28;20243;-56
2021/11/21 08:51:48;;;;;;;0.43;0.43;;;18.10;49.60;;;;;;5072508;28;20053;-55
2021/11/21 08:54:16;;;;;;;0.68;0.68;;;18.00;49.50;;;;;;5084956;28;20127;-54
2021/11/21 08:56:45;;;;;;;0.73;0.43;;;18.00;49.50;;;;;;5077187;28;20124;-54
2021/11/21 08:59:13;;;;;;;1.80;0.85;;;18.00;49.50;;;;;;5075495;28;20091;-53
2021/11/21 09:01:40;;;;;;;0.70;0.60;;;18.10;49.60;;;;;;5073717;28;20032;-54
2021/11/21 09:04:07;;;;;;;1.48;1.05;;;18.00;49.50;;;;;;5082944;28;20053;-54
2021/11/21 09:06:35;;;;;;;1.45;0.88;;;18.10;49.50;;;;;;5076983;28;20326;-55
2021/11/21 09:09:03;;;;;;;0.73;0.70;;;18.10;49.50;;;;;;5078073;28;20040;-54
2021/11/21 09:11:30;;;;;;;0.75;0.52;;;18.10;49.60;;;;;;5075490;28;20042;-56
2021/11/21 09:13:58;;;;;;;1.75;0.60;;;18.10;49.50;;;;;;5079876;28;20047;-53
2021/11/21 09:16:26;;;;;;;0.95;0.40;;;18.10;49.50;;;;;;5071190;28;20101;-55
2021/11/21 09:18:53;;;;;;;0.65;0.65;;;18.10;49.50;;;;;;5067468;28;20048;-56
2021/11/21 09:21:20;;;;;;;0.60;0.60;;;18.10;49.50;;;;;;5051268;28;20045;-55
2021/11/21 09:23:47;;;;;;;0.60;0.30;;;18.10;50.10;;;;;;5069624;28;20127;-57
2021/11/21 09:26:16;;;;;;;0.95;0.55;;;18.10;49.50;;;;;;5078637;28;20052;-56
2021/11/21 09:28:44;;;;;;;1.00;0.60;;;18.10;49.50;;;;;;5081028;28;20032;-56
2021/11/21 09:31:12;;;;;;;1.40;0.50;;;18.10;49.50;;;;;;5069889;28;20075;-56
2021/11/21 09:33:39;;;;;;;0.60;0.60;;;18.10;49.50;;;;;;5072224;28;20052;-56
2021/11/21 09:36:08;;;;;;;0.50;0.25;;;18.20;49.50;;;;;;5065289;28;20075;-58
2021/11/21 09:38:35;;;;;;;0.70;0.47;;;18.10;49.50;;;;;;5068298;28;20616;-51
2021/11/21 09:41:04;;;;;;;1.85;0.40;;;18.10;49.40;;;;;;5073164;28;20106;-56
2021/11/21 09:43:31;;;;;;;0.40;0.30;;;18.20;49.50;;;;;;5071305;28;20507;-53
2021/11/21 09:46:00;;;;;;;0.77;0.77;;;18.20;49.40;;;;;;5084838;28;20048;-55
2021/11/21 09:48:31;;;;;;;0.68;0.50;;;18.20;49.40;;;;;;5074692;28;20123;-51
2021/11/21 09:51:00;;;;;;;0.50;0.40;;;18.20;49.40;;;;;;5069466;28;20048;-49
2021/11/21 09:53:27;;;;;;;0.70;0.70;;;18.20;49.40;;;;;;5069384;28;20040;-52
2021/11/21 09:55:55;;;;;;;0.25;0.25;;;18.20;49.40;;;;;;5069902;28;20382;-52
2021/11/21 09:58:23;;;;;;;0.40;0.40;;;18.20;49.40;;;;;;5071095;28;20045;-54
2021/11/21 10:00:50;;;;;;;0.40;0.40;;;18.20;49.40;;;;;;5071776;28;20047;-52
2021/11/21 10:03:19;;;;;;;0.65;0.52;;;18.20;49.40;;;;;;5074447;28;20047;-52
2021/11/21 10:05:50;;;;;;;0.75;0.57;;;18.20;49.40;;;;;;5064030;28;20048;-52
2021/11/21 10:08:19;;;;;;;0.30;0.30;;;18.20;49.40;;;;;;5071129;28;20048;-53
2021/11/21 10:10:48;;;;;;;0.35;0.35;;;18.20;49.40;;;;;;5069951;28;20047;-54
2021/11/21 10:13:34;;;;;;;0.90;0.63;;;18.20;49.40;;;;;;5065255;28;20048;-54
2021/11/21 10:16:28;;;;;;;0.85;0.85;;;18.30;49.40;;;;;;5062844;28;20586;-55
2021/11/21 10:18:57;;;;;;;0.73;0.50;;;18.20;49.30;;;;;;5064713;28;20405;-55
2021/11/21 10:21:27;;;;;;;0.40;0.30;;;18.20;49.40;;;;;;5070100;28;20048;-57
2021/11/21 10:24:21;;;;;;;0.75;0.75;;;18.30;49.40;;;;;;5062541;28;20048;-56
2021/11/21 10:27:01;;;;;;;0.80;0.47;;;18.30;49.30;;;;;;5068838;28;20468;-53
2021/11/21 10:29:31;;;;;;;1.15;1.00;;;18.30;49.40;;;;;;5063992;28;20119;-55
2021/11/21 10:31:58;;;;;;;0.60;0.60;;;18.30;49.30;;;;;;5070368;28;20090;-55
2021/11/21 10:34:26;;;;;;;0.90;0.80;;;18.30;49.30;;;;;;5071286;28;20139;-55
2021/11/21 10:36:55;;;;;;;0.47;0.40;;;18.30;49.30;;;;;;5083970;28;20070;-57
2021/11/21 10:39:27;;;;;;;0.60;0.60;;;18.30;49.20;;;;;;5067965;28;20045;-55
2021/11/21 10:41:57;;;;;;;0.80;0.60;;;18.40;49.30;;;;;;5073506;28;20627;-54
2021/11/21 10:44:24;;;;;;;0.43;0.43;;;18.40;49.30;;;;;;5066579;28;20041;-55
2021/11/21 10:46:53;;;;;;;0.98;0.80;;;18.40;49.20;;;;;;5064811;28;20044;-54
2021/11/21 10:49:25;;;;;;;0.52;0.52;;;18.40;49.20;;;;;;5066360;28;20045;-53
2021/11/21 10:52:07;;;;;;;1.25;0.20;;;18.40;49.20;;;;;;5067594;28;20084;-55
2021/11/21 10:54:36;;;;;;;0.60;0.40;;;18.40;49.20;;;;;;5068967;28;20416;-56
2021/11/21 10:57:04;;;;;;;0.30;0.30;;;18.40;49.20;;;;;;5072162;28;20047;-54
2021/11/21 10:59:34;;;;;;;1.83;0.75;;;18.40;49.20;;;;;;5063993;28;20040;-53
2021/11/21 11:02:10;;;;;;;2.03;1.00;;;18.40;49.20;;;;;;5066892;28;20064;-56
2021/11/21 11:04:37;;;;;;;;;;;18.40;49.10;;;;;;5057751;28;20132;-54
2021/11/21 11:07:16;;;;;;;0.45;0.22;;;18.40;49.10;;;;;;5063754;28;19931;-54
2021/11/21 11:09:44;;;;;;;0.77;0.55;;;18.40;49.20;;;;;;5064445;28;20106;-52
2021/11/21 11:12:11;;;;;;;0.40;0.40;;;18.40;49.20;;;;;;5063909;28;20083;-55
2021/11/21 11:14:39;;;;;;;1.13;0.30;;;18.40;49.20;;;;;;5069225;28;20040;-53
2021/11/21 11:17:07;;;;;;;1.00;0.43;;;18.40;49.20;;;;;;5072310;28;20469;-54
2021/11/21 11:19:35;;;;;;;0.98;0.50;;;18.40;49.10;;;;;;5068842;28;20059;-53
2021/11/21 11:22:04;;;;;;;0.95;0.20;;;18.40;49.20;;;;;;5065785;28;20044;-53
2021/11/21 11:24:35;;;;;;;0.98;0.95;;;18.40;49.10;;;;;;5071775;28;20048;-56
2021/11/21 11:27:09;;;;;;;0.43;0.40;;;18.50;49.10;;;;;;5065296;28;20102;-56
2021/11/21 11:29:43;;;;;;;0.22;0.20;;;18.50;49.10;;;;;;5067412;28;20550;-52
2021/11/21 11:32:31;;;;;;;1.20;0.63;;;18.50;49.10;;;;;;5065092;28;20041;-52
2021/11/21 11:34:59;;;;;;;0.68;0.68;;;18.50;49.10;;;;;;5065067;28;20128;-52
2021/11/21 11:37:42;;;;;;;0.80;0.80;;;18.50;49.10;;;;;;5064444;28;20064;-53
2021/11/21 11:40:38;;;;;;;0.52;0.50;;;18.50;49.10;;;;;;5071007;28;20044;-55
2021/11/21 11:43:29;;;;;;;0.90;0.90;;;18.50;49.00;;;;;;5062149;28;20056;-56
2021/11/21 11:45:58;;;;;;;0.60;0.52;;;18.50;49.10;;;;;;5063477;28;20044;-51
2021/11/21 11:48:36;;;;;;;0.50;0.50;;;18.50;49.20;;;;;;5068699;28;20040;-53
2021/11/21 11:51:05;;;;;;;0.43;0.43;;;18.50;49.10;;;;;;5065566;28;20458;-51
2021/11/21 11:53:35;;;;;;;0.50;0.50;;;18.50;49.10;;;;;;5065323;28;20095;-54
2021/11/21 11:56:19;;;;;;;1.48;0.90;;;18.50;49.10;;;;;;5061555;28;20040;-55
2021/11/21 11:58:51;;;;;;;0.38;0.25;;;18.50;49.10;;;;;;5073491;28;20047;-52
2021/11/21 12:01:59;;;;;;;0.55;0.47;;;18.50;49.20;;;;;;5078284;28;20032;-52
2021/11/21 12:04:47;;;;;;;1.00;0.88;;;18.50;49.00;;;;;;5002491;28;20502;-53
2021/11/21 12:07:25;;;;;;;0.73;0.40;;;18.50;49.10;;;;;;4995691;28;20426;-54
2021/11/21 12:10:00;;;;;;;0.95;0.82;;;18.50;49.20;;;;;;5015083;28;20143;-52
2021/11/21 12:13:11;;;;;;;0.85;0.85;;;18.50;49.20;;;;;;5007390;28;20747;-55
2021/11/21 12:16:01;;;;;;;0.80;0.57;;;18.50;49.10;;;;;;5004425;28;20076;-53
2021/11/21 12:18:52;;;;;;;0.77;0.77;;;18.50;49.20;;;;;;5012123;28;20528;-51
2021/11/21 12:21:44;;;;;;;1.13;1.05;;;18.50;49.20;;;;;;5006457;28;20511;-54
2021/11/21 12:24:19;;;;;;;0.63;0.63;;;18.50;49.20;;;;;;4999118;28;20550;-53
2021/11/21 12:26:46;;;;;;;0.38;0.35;;;18.50;49.30;;;;;;5018073;28;20049;-54
2021/11/21 12:29:36;;;;;;;0.70;0.70;;;18.40;49.20;;;;;;5020196;28;20136;-54
2021/11/21 12:32:24;;;;;;;1.00;0.63;;;18.50;49.30;;;;;;5016535;28;20045;-54
2021/11/21 12:34:51;;;;;;;0.50;0.50;;;18.50;49.30;;;;;;5021316;28;20740;-53
2021/11/21 12:37:35;;;;;;;0.30;0.30;;;18.50;49.30;;;;;;5025071;28;20041;-51
2021/11/21 12:40:15;;;;;;;1.50;0.68;;;18.50;49.30;;;;;;5023516;28;20053;-54
2021/11/21 12:42:44;;;;;;;0.52;0.45;;;18.50;49.30;;;;;;5062432;28;20036;-53
2021/11/21 12:45:14;;;;;;;0.70;0.70;;;18.50;49.30;;;;;;5069943;28;20543;-53
2021/11/21 12:47:44;;;;;;;0.68;0.25;;;18.50;49.40;;;;;;5071457;28;20048;-54
2021/11/21 12:50:22;;;;;;;0.68;0.68;;;18.50;49.30;;;;;;5065390;28;20696;-53
2021/11/21 12:52:51;;;;;;;0.55;0.55;;;18.50;49.30;;;;;;5065108;28;20037;-55
2021/11/21 12:55:18;;;;;;;1.02;0.47;;;18.50;49.40;;;;;;5063465;28;20037;-54
2021/11/21 12:57:47;;;;;;;1.85;0.30;;;18.50;49.40;;;;;;5061157;28;20444;-54
2021/11/21 13:00:15;;;;;;;0.47;0.47;;;18.50;49.40;;;;;;5064597;28;20067;-52